Time;durP1;ratioP1;P1;durP2;ratioP2;P2;SDS_P1;SDS_P2;PMS_P1;PMS_P2;Temp;Humidity;BMP_temperature;BMP_pressure;BME280_temperature;BME280_humidity;BME280_pressure;Samples;Min_cycle;Max_cycle;Signal;HPM_P1;HPM_P2
2022/03/19 00:00:21;;;;;;;;;20.50;18.75;;;;;;;;5173859;27;11502;-77
2022/03/19 00:02:47;;;;;;;;;27.50;23.00;;;;;;;;5172466;27;12655;-76
2022/03/19 00:05:13;;;;;;;;;22.50;19.50;;;;;;;;5175439;27;12189;-76
2022/03/19 00:07:41;;;;;;;;;22.00;18.75;;;;;;;;5174545;27;12206;-75
2022/03/19 00:10:08;;;;;;;;;23.25;18.50;;;;;;;;5168216;27;10642;-75
2022/03/19 00:12:34;;;;;;;;;25.00;22.75;;;;;;;;5174654;27;11594;-75
2022/03/19 00:14:59;;;;;;;;;22.50;17.50;;;;;;;;5168331;27;12271;-75
2022/03/19 00:17:24;;;;;;;;;20.75;19.25;;;;;;;;5163200;27;12222;-75
2022/03/19 00:19:49;;;;;;;;;20.25;17.00;;;;;;;;5166884;27;11536;-75
2022/03/19 00:22:15;;;;;;;;;25.00;19.00;;;;;;;;5171965;27;10362;-74
2022/03/19 00:24:40;;;;;;;;;24.50;22.75;;;;;;;;5154633;27;11740;-75
2022/03/19 00:27:05;;;;;;;;;20.25;18.25;;;;;;;;5171547;27;12697;-74
2022/03/19 00:29:31;;;;;;;;;29.75;20.50;;;;;;;;5172482;27;11699;-75
2022/03/19 00:31:56;;;;;;;;;24.50;19.00;;;;;;;;5173172;27;12218;-74
2022/03/19 00:34:21;;;;;;;;;24.00;18.75;;;;;;;;5172497;27;12226;-76
2022/03/19 00:36:47;;;;;;;;;29.75;20.75;;;;;;;;5172191;27;10408;-74
2022/03/19 00:39:12;;;;;;;;;20.00;18.00;;;;;;;;5173031;27;11699;-76
2022/03/19 00:41:37;;;;;;;;;23.25;20.00;;;;;;;;5171611;27;12181;-76
2022/03/19 00:44:02;;;;;;;;;27.25;21.50;;;;;;;;5153375;27;13421;-74
2022/03/19 00:46:28;;;;;;;;;22.00;18.50;;;;;;;;5172733;27;11606;-76
2022/03/19 00:48:53;;;;;;;;;26.25;22.25;;;;;;;;5168647;27;11443;-74
2022/03/19 00:51:18;;;;;;;;;22.25;21.00;;;;;;;;5143430;27;14444;-74
2022/03/19 00:53:44;;;;;;;;;23.75;21.50;;;;;;;;5162251;27;12195;-74
2022/03/19 00:56:09;;;;;;;;;19.00;17.50;;;;;;;;5162177;27;11826;-74
2022/03/19 00:58:34;;;;;;;;;18.50;18.25;;;;;;;;5161811;27;12327;-74
2022/03/19 01:00:59;;;;;;;;;20.25;17.75;;;;;;;;5161768;27;12582;-74
2022/03/19 01:03:25;;;;;;;;;22.75;18.50;;;;;;;;5161800;27;12335;-74
2022/03/19 01:05:50;;;;;;;;;16.75;15.50;;;;;;;;5161946;27;11607;-74
2022/03/19 01:08:15;;;;;;;;;18.25;17.00;;;;;;;;5162151;27;10352;-74
2022/03/19 01:10:40;;;;;;;;;23.25;21.00;;;;;;;;5161785;27;13049;-75
2022/03/19 01:13:06;;;;;;;;;19.25;17.50;;;;;;;;5161820;27;10349;-75
2022/03/19 01:15:32;;;;;;;;;22.25;19.50;;;;;;;;5161314;27;13280;-75
2022/03/19 01:17:57;;;;;;;;;27.50;21.00;;;;;;;;5162390;27;10413;-74
2022/03/19 01:20:24;;;;;;;;;19.25;16.50;;;;;;;;5161647;27;12311;-75
2022/03/19 01:22:50;;;;;;;;;22.25;18.25;;;;;;;;5161731;27;13466;-77
2022/03/19 01:25:16;;;;;;;;;18.25;15.50;;;;;;;;5160906;27;13460;-77
2022/03/19 01:27:42;;;;;;;;;18.00;15.00;;;;;;;;5161425;27;13352;-75
2022/03/19 01:30:08;;;;;;;;;22.50;17.50;;;;;;;;5143107;27;11416;-75
2022/03/19 01:32:35;;;;;;;;;26.00;21.00;;;;;;;;5161357;27;14692;-75
2022/03/19 01:35:00;;;;;;;;;21.25;18.50;;;;;;;;5142433;27;14421;-74
2022/03/19 01:37:25;;;;;;;;;25.00;18.00;;;;;;;;5142292;27;12569;-74
2022/03/19 01:39:54;;;;;;;;;20.00;17.50;;;;;;;;5161323;27;11571;-75
2022/03/19 01:42:25;;;;;;;;;23.00;20.50;;;;;;;;5142407;27;11823;-75
2022/03/19 01:44:51;;;;;;;;;30.75;24.25;;;;;;;;5161521;27;11416;-74
2022/03/19 01:47:17;;;;;;;;;20.50;19.00;;;;;;;;5141801;27;13367;-74
2022/03/19 01:49:42;;;;;;;;;24.50;21.00;;;;;;;;5161421;27;13856;-75
2022/03/19 01:52:07;;;;;;;;;23.75;19.75;;;;;;;;5142423;27;10047;-75
2022/03/19 01:54:34;;;;;;;;;22.50;19.75;;;;;;;;5161605;27;13421;-75
2022/03/19 01:57:00;;;;;;;;;18.50;16.25;;;;;;;;5160731;27;9070;-75
2022/03/19 01:59:27;;;;;;;;;17.75;16.50;;;;;;;;5160507;27;12380;-75
2022/03/19 02:01:52;;;;;;;;;25.25;19.00;;;;;;;;5161271;27;11457;-75
2022/03/19 02:04:18;;;;;;;;;22.00;17.00;;;;;;;;5161388;27;13273;-74
2022/03/19 02:06:44;;;;;;;;;21.75;17.00;;;;;;;;5161465;27;10637;-75
2022/03/19 02:09:10;;;;;;;;;24.25;19.75;;;;;;;;5160854;27;9624;-76
2022/03/19 02:11:36;;;;;;;;;26.00;21.33;;;;;;;;5160952;27;11468;-76
2022/03/19 02:14:01;;;;;;;;;19.33;18.00;;;;;;;;5160291;27;11474;-75
2022/03/19 02:16:27;;;;;;;;;21.00;18.00;;;;;;;;5161016;27;13213;-75
2022/03/19 02:18:52;;;;;;;;;25.00;21.00;;;;;;;;5161072;27;10154;-75
2022/03/19 02:21:18;;;;;;;;;22.00;17.75;;;;;;;;5160598;27;10883;-76
2022/03/19 02:26:26;;;;;;;;;24.75;19.25;;;;;;;;5161346;27;12233;-75
2022/03/19 02:28:52;;;;;;;;;18.00;17.00;;;;;;;;5160873;27;12328;-74
2022/03/19 02:31:18;;;;;;;;;24.25;18.50;;;;;;;;5161226;27;13483;-76
2022/03/19 02:33:43;;;;;;;;;18.75;16.75;;;;;;;;5160744;27;14630;-75
2022/03/19 02:36:08;;;;;;;;;20.67;18.67;;;;;;;;5160588;27;15064;-75
2022/03/19 02:38:34;;;;;;;;;23.67;17.67;;;;;;;;5160620;27;13260;-76
2022/03/19 02:41:04;;;;;;;;;20.67;18.00;;;;;;;;5160539;27;8788;-75
2022/03/19 02:43:29;;;;;;;;;21.00;18.00;;;;;;;;5141569;27;13983;-76
2022/03/19 02:45:54;;;;;;;;;25.00;20.00;;;;;;;;5160236;27;11438;-77
2022/03/19 02:48:19;;;;;;;;;16.50;16.00;;;;;;;;5160533;27;9590;-76
2022/03/19 02:50:45;;;;;;;;;19.67;17.00;;;;;;;;5159776;27;13960;-76
2022/03/19 02:53:13;;;;;;;;;26.00;20.25;;;;;;;;5160401;27;10324;-76
2022/03/19 02:55:39;;;;;;;;;18.25;15.50;;;;;;;;5160363;27;13311;-76
2022/03/19 02:58:06;;;;;;;;;20.75;17.00;;;;;;;;5141001;27;15925;-75
2022/03/19 03:00:31;;;;;;;;;21.75;19.25;;;;;;;;5159481;27;13305;-76
2022/03/19 03:02:57;;;;;;;;;20.00;16.00;;;;;;;;5160345;27;12946;-76
2022/03/19 03:05:22;;;;;;;;;19.00;16.33;;;;;;;;5160532;27;11444;-76
2022/03/19 03:07:47;;;;;;;;;17.75;15.25;;;;;;;;5162085;27;13233;-76
2022/03/19 03:10:14;;;;;;;;;24.00;20.00;;;;;;;;5163497;27;11893;-76
2022/03/19 03:12:40;;;;;;;;;17.75;15.50;;;;;;;;5163435;27;13395;-76
2022/03/19 03:15:05;;;;;;;;;17.50;17.00;;;;;;;;5163762;27;13281;-75
2022/03/19 03:17:33;;;;;;;;;21.00;17.00;;;;;;;;5163057;27;10670;-76
2022/03/19 03:19:58;;;;;;;;;20.00;18.00;;;;;;;;5144341;27;11318;-76
2022/03/19 03:22:24;;;;;;;;;18.00;17.00;;;;;;;;5163278;27;11608;-76
2022/03/19 03:24:49;;;;;;;;;23.33;21.00;;;;;;;;5163678;27;10482;-76
2022/03/19 03:27:14;;;;;;;;;20.75;18.50;;;;;;;;5163350;27;12185;-75
2022/03/19 03:29:40;;;;;;;;;20.75;19.25;;;;;;;;5163651;27;12459;-75
2022/03/19 03:32:06;;;;;;;;;18.67;16.33;;;;;;;;5163723;27;8818;-75
2022/03/19 03:34:31;;;;;;;;;20.33;18.00;;;;;;;;5143917;27;12531;-74
2022/03/19 03:36:56;;;;;;;;;18.33;17.33;;;;;;;;5162523;27;13283;-75
2022/03/19 03:39:21;;;;;;;;;23.33;16.67;;;;;;;;5163065;27;13530;-75
2022/03/19 03:41:48;;;;;;;;;18.00;18.00;;;;;;;;5164009;27;13207;-75
2022/03/19 03:44:14;;;;;;;;;21.33;18.00;;;;;;;;5163244;27;13821;-77
2022/03/19 03:46:39;;;;;;;;;20.33;18.00;;;;;;;;5144670;27;11494;-76
2022/03/19 03:49:04;;;;;;;;;19.67;16.67;;;;;;;;5163403;27;8760;-76
2022/03/19 03:51:29;;;;;;;;;18.33;15.33;;;;;;;;5163065;27;13533;-76
2022/03/19 03:53:55;;;;;;;;;20.67;15.33;;;;;;;;5163038;27;11361;-75
2022/03/19 03:56:21;;;;;;;;;17.67;16.67;;;;;;;;5163388;27;10186;-76
2022/03/19 03:58:46;;;;;;;;;19.33;16.67;;;;;;;;5162345;27;13654;-76
2022/03/19 04:01:11;;;;;;;;;23.67;18.00;;;;;;;;5163121;27;11599;-76
2022/03/19 04:03:37;;;;;;;;;20.33;17.67;;;;;;;;5163225;27;13229;-76
2022/03/19 04:06:03;;;;;;;;;18.33;18.00;;;;;;;;5163472;27;11667;-76
2022/03/19 04:08:28;;;;;;;;;22.33;18.67;;;;;;;;5162896;27;13259;-76
2022/03/19 04:10:53;;;;;;;;;23.67;16.00;;;;;;;;5162469;27;13410;-77
2022/03/19 04:13:18;;;;;;;;;19.67;18.33;;;;;;;;5163037;27;11394;-77
2022/03/19 04:15:46;;;;;;;;;17.33;14.67;;;;;;;;5162975;27;13347;-77
2022/03/19 04:18:13;;;;;;;;;22.33;16.00;;;;;;;;5163440;27;11751;-77
2022/03/19 04:20:38;;;;;;;;;20.33;17.00;;;;;;;;5162364;27;13508;-77
2022/03/19 04:23:04;;;;;;;;;19.67;19.67;;;;;;;;5163077;27;11410;-76
2022/03/19 04:25:29;;;;;;;;;16.33;16.00;;;;;;;;5162542;27;13194;-76
2022/03/19 04:27:55;;;;;;;;;21.67;16.00;;;;;;;;5143159;27;13747;-75
2022/03/19 04:30:22;;;;;;;;;20.33;16.33;;;;;;;;5162360;27;10147;-77
2022/03/19 04:32:49;;;;;;;;;19.00;16.00;;;;;;;;5182761;27;13181;-74
2022/03/19 04:38:00;;;;;;;;;25.67;19.33;;;;;;;;5183192;27;10398;-76
2022/03/19 04:40:25;;;;;;;;;19.67;19.00;;;;;;;;5182394;27;12269;-73
2022/03/19 04:42:51;;;;;;;;;22.67;17.00;;;;;;;;5176655;27;13204;-73
2022/03/19 04:45:17;;;;;;;;;6.33;4.33;;;;;;;;5172067;27;10917;-75
2022/03/19 04:47:42;;;;;;;;;19.00;17.00;;;;;;;;5169776;27;22808;-74
2022/03/19 04:50:07;;;;;;;;;16.00;16.00;;;;;;;;5172311;27;22888;-75
2022/03/19 04:52:34;;;;;;;;;18.33;16.67;;;;;;;;5172504;27;9637;-78
2022/03/19 04:55:00;;;;;;;;;19.67;15.67;;;;;;;;5170816;27;11655;-77
2022/03/19 04:57:29;;;;;;;;;17.00;16.33;;;;;;;;5172124;27;11596;-76
2022/03/19 04:59:54;;;;;;;;;18.33;16.67;;;;;;;;5180786;27;11439;-79
2022/03/19 05:02:24;;;;;;;;;15.00;13.00;;;;;;;;5180908;27;11486;-76
2022/03/19 05:04:49;;;;;;;;;18.33;16.00;;;;;;;;5182999;27;11436;-76
2022/03/19 05:07:14;;;;;;;;;22.00;16.67;;;;;;;;5182404;27;11417;-77
2022/03/19 05:12:37;;;;;;;;;15.67;12.00;;;;;;;;5182604;27;13267;-75
2022/03/19 05:15:02;;;;;;;;;15.67;15.33;;;;;;;;5182993;27;9971;-78
2022/03/19 05:17:28;;;;;;;;;17.00;16.00;;;;;;;;5182815;27;11438;-77
2022/03/19 05:19:53;;;;;;;;;18.33;15.00;;;;;;;;5182884;27;11369;-79
2022/03/19 05:22:19;;;;;;;;;13.00;13.00;;;;;;;;5181767;27;10567;-79
2022/03/19 05:24:44;;;;;;;;;19.33;16.67;;;;;;;;5182252;27;10342;-79
2022/03/19 05:27:11;;;;;;;;;22.33;19.00;;;;;;;;5182576;27;11391;-79
2022/03/19 05:29:36;;;;;;;;;19.33;16.67;;;;;;;;5181769;27;13352;-79
2022/03/19 05:32:01;;;;;;;;;21.33;15.33;;;;;;;;5182273;27;13497;-80
2022/03/19 05:34:31;;;;;;;;;25.33;16.67;;;;;;;;5183019;27;13455;-80
2022/03/19 05:36:57;;;;;;;;;20.67;18.33;;;;;;;;5182814;27;11485;-75
2022/03/19 05:39:22;;;;;;;;;15.00;15.00;;;;;;;;5182884;27;11453;-82
2022/03/19 05:41:48;;;;;;;;;20.00;18.00;;;;;;;;5182267;27;13373;-74
2022/03/19 05:44:13;;;;;;;;;19.33;17.33;;;;;;;;5181733;27;10512;-75
2022/03/19 05:46:39;;;;;;;;;17.67;13.00;;;;;;;;5161848;27;13700;-76
2022/03/19 05:49:05;;;;;;;;;18.33;16.33;;;;;;;;5179112;27;12607;-75
2022/03/19 05:51:30;;;;;;;;;19.00;16.00;;;;;;;;5181038;27;11601;-75
2022/03/19 05:53:55;;;;;;;;;16.00;16.00;;;;;;;;5161228;27;11374;-73
2022/03/19 05:56:20;;;;;;;;;21.33;15.67;;;;;;;;5160332;27;8811;-73
2022/03/19 05:58:46;;;;;;;;;13.00;13.00;;;;;;;;5167665;27;14383;-73
2022/03/19 06:01:11;;;;;;;;;15.67;14.33;;;;;;;;5169181;27;13261;-75
2022/03/19 06:03:36;;;;;;;;;19.00;14.33;;;;;;;;5168345;27;11892;-73
2022/03/19 06:06:03;;;;;;;;;14.33;13.67;;;;;;;;5170130;27;9312;-74
2022/03/19 06:08:29;;;;;;;;;11.00;9.00;;;;;;;;5170212;27;11622;-73
2022/03/19 06:10:56;;;;;;;;;16.33;15.33;;;;;;;;5169133;27;22398;-72
2022/03/19 06:13:21;;;;;;;;;17.00;15.33;;;;;;;;5167470;27;22629;-73
2022/03/19 06:15:46;;;;;;;;;18.33;16.67;;;;;;;;5169639;27;9316;-73
2022/03/19 06:18:12;;;;;;;;;16.00;15.00;;;;;;;;5169404;27;11559;-73
2022/03/19 06:20:37;;;;;;;;;15.33;12.67;;;;;;;;5167964;27;12529;-73
2022/03/19 06:23:02;;;;;;;;;16.33;13.67;;;;;;;;5153490;27;11770;-74
2022/03/19 06:25:28;;;;;;;;;19.67;17.00;;;;;;;;5167990;27;8797;-75
2022/03/19 06:27:53;;;;;;;;;17.33;15.00;;;;;;;;5169696;27;11577;-73
2022/03/19 06:30:18;;;;;;;;;21.33;15.67;;;;;;;;5167513;27;11503;-73
2022/03/19 06:32:43;;;;;;;;;25.00;19.00;;;;;;;;5166981;27;13370;-75
2022/03/19 06:35:10;;;;;;;;;18.33;15.33;;;;;;;;5168259;27;11591;-75
2022/03/19 06:37:35;;;;;;;;;15.67;14.33;;;;;;;;5149762;27;15744;-73
2022/03/19 06:40:06;;;;;;;;;15.67;15.67;;;;;;;;5170641;27;10543;-74
2022/03/19 06:42:32;;;;;;;;;17.67;14.33;;;;;;;;5171309;27;9152;-74
2022/03/19 06:44:57;;;;;;;;;21.33;14.33;;;;;;;;5172028;27;11411;-76
2022/03/19 06:47:23;;;;;;;;;12.00;11.67;;;;;;;;5172766;27;10369;-74
2022/03/19 06:49:50;;;;;;;;;15.33;15.33;;;;;;;;5173104;27;13224;-73
2022/03/19 06:52:15;;;;;;;;;22.67;19.00;;;;;;;;5171940;27;12960;-75
2022/03/19 06:54:41;;;;;;;;;16.00;16.00;;;;;;;;5173326;27;13542;-76
2022/03/19 06:57:06;;;;;;;;;13.00;13.00;;;;;;;;5172423;27;12281;-77
2022/03/19 06:59:31;;;;;;;;;26.00;19.33;;;;;;;;5179182;27;8789;-76
2022/03/19 07:01:57;;;;;;;;;15.33;15.00;;;;;;;;5174289;27;13229;-75
2022/03/19 07:04:25;;;;;;;;;16.67;16.00;;;;;;;;5182476;27;13248;-75
2022/03/19 07:06:50;;;;;;;;;23.33;15.00;;;;;;;;5185071;27;10571;-75
2022/03/19 07:09:15;;;;;;;;;23.00;17.00;;;;;;;;5181956;27;12443;-74
2022/03/19 07:11:40;;;;;;;;;18.67;14.33;;;;;;;;5174210;27;10011;-76
2022/03/19 07:14:06;;;;;;;;;19.33;15.00;;;;;;;;5171486;27;13445;-74
2022/03/19 07:16:32;;;;;;;;;20.00;15.00;;;;;;;;5173244;27;11890;-77
2022/03/19 07:18:57;;;;;;;;;18.67;15.00;;;;;;;;5173098;27;10202;-76
2022/03/19 07:21:25;;;;;;;;;20.67;16.00;;;;;;;;5170869;27;10218;-71
2022/03/19 07:23:50;;;;;;;;;19.00;15.00;;;;;;;;5152248;27;12615;-73
2022/03/19 07:26:16;;;;;;;;;12.67;11.00;;;;;;;;5171812;27;12494;-72
2022/03/19 07:28:41;;;;;;;;;19.67;15.00;;;;;;;;5173728;27;10636;-72
2022/03/19 07:31:07;;;;;;;;;17.67;16.33;;;;;;;;5171151;27;8822;-72
2022/03/19 07:33:34;;;;;;;;;17.00;12.33;;;;;;;;5172642;27;11570;-73
2022/03/19 07:36:03;;;;;;;;;22.67;15.67;;;;;;;;5163016;27;9956;-73
2022/03/19 07:38:30;;;;;;;;;14.67;11.00;;;;;;;;5163295;27;13314;-72
2022/03/19 07:43:40;;;;;;;;;16.33;14.33;;;;;;;;5163223;27;12195;-72
2022/03/19 07:46:05;;;;;;;;;19.67;14.67;;;;;;;;5163366;27;11409;-72
2022/03/19 07:48:30;;;;;;;;;17.67;15.00;;;;;;;;5177026;27;11603;-70
2022/03/19 07:50:55;;;;;;;;;13.67;11.33;;;;;;;;5184094;27;11401;-72
2022/03/19 07:53:21;;;;;;;;;16.00;14.67;;;;;;;;5178906;27;11414;-73
2022/03/19 07:55:46;;;;;;;;;12.00;9.00;;;;;;;;5162897;27;11945;-72
2022/03/19 07:58:12;;;;;;;;;16.00;14.67;;;;;;;;5162825;27;21388;-73
2022/03/19 08:00:38;;;;;;;;;20.67;16.00;;;;;;;;5170665;27;21523;-75
2022/03/19 08:03:04;;;;;;;;;23.67;17.33;;;;;;;;5164629;27;14791;-73
2022/03/19 08:05:29;;;;;;;;;19.00;14.67;;;;;;;;5170825;27;11447;-72
2022/03/19 08:07:54;;;;;;;;;17.67;11.33;;;;;;;;5171322;27;13273;-73
2022/03/19 08:10:19;;;;;;;;;17.00;17.00;;;;;;;;5171240;27;12457;-72
2022/03/19 08:12:45;;;;;;;;;15.00;14.67;;;;;;;;5153087;27;11068;-72
2022/03/19 08:15:11;;;;;;;;;17.67;12.33;;;;;;;;5163557;27;11652;-73
2022/03/19 08:17:37;;;;;;;;;16.00;14.00;;;;;;;;5162143;27;11451;-73
2022/03/19 08:20:04;;;;;;;;;14.00;12.00;;;;;;;;5161598;27;11454;-73
2022/03/19 08:22:29;;;;;;;;;18.00;14.00;;;;;;;;5162629;27;11461;-72
2022/03/19 08:24:54;;;;;;;;;12.67;11.33;;;;;;;;5162053;27;11464;-75
2022/03/19 08:27:20;;;;;;;;;12.25;10.00;;;;;;;;5164344;27;12609;-72
2022/03/19 08:29:46;;;;;;;;;13.00;11.25;;;;;;;;5164651;27;10912;-73
2022/03/19 08:32:11;;;;;;;;;9.75;9.00;;;;;;;;5182732;27;12754;-73
2022/03/19 08:34:36;;;;;;;;;16.25;13.75;;;;;;;;5178691;27;22324;-73
2022/03/19 08:37:02;;;;;;;;;17.75;13.00;;;;;;;;5182259;27;23465;-73
2022/03/19 08:42:11;;;;;;;;;15.00;13.00;;;;;;;;5183093;27;10397;-71
2022/03/19 08:44:39;;;;;;;;;19.00;14.75;;;;;;;;5182834;27;11434;-71
2022/03/19 08:47:04;;;;;;;;;17.00;14.50;;;;;;;;5183732;27;11664;-70
2022/03/19 08:49:29;;;;;;;;;18.00;17.00;;;;;;;;5172436;27;11829;-70
2022/03/19 08:51:55;;;;;;;;;16.75;14.25;;;;;;;;5173735;27;11334;-70
2022/03/19 08:54:21;;;;;;;;;23.25;18.50;;;;;;;;5176796;27;11461;-70
2022/03/19 08:56:47;;;;;;;;;13.25;13.25;;;;;;;;5172551;27;13212;-72
2022/03/19 08:59:13;;;;;;;;;18.50;13.00;;;;;;;;5167019;27;13343;-74
2022/03/19 09:01:39;;;;;;;;;13.75;13.25;;;;;;;;5160449;27;12490;-75
2022/03/19 09:04:04;;;;;;;;;15.00;13.00;;;;;;;;5161131;27;11430;-74
2022/03/19 09:06:30;;;;;;;;;18.75;14.50;;;;;;;;5141197;27;13589;-76
2022/03/19 09:08:55;;;;;;;;;11.00;10.00;;;;;;;;5161304;27;11701;-73
2022/03/19 09:11:21;;;;;;;;;20.00;15.00;;;;;;;;5161318;27;11889;-75
2022/03/19 09:13:48;;;;;;;;;7.50;5.00;;;;;;;;5161653;27;10340;-73
2022/03/19 09:16:14;;;;;;;;;14.50;12.25;;;;;;;;5161313;27;23174;-74
2022/03/19 09:18:39;;;;;;;;;16.00;11.75;;;;;;;;5160929;27;22246;-74
2022/03/19 09:21:05;;;;;;;;;19.00;17.00;;;;;;;;5161139;27;10361;-75
2022/03/19 09:23:33;;;;;;;;;17.50;14.75;;;;;;;;5161423;27;11581;-76
2022/03/19 09:25:59;;;;;;;;;16.25;15.75;;;;;;;;5162062;27;11487;-75
2022/03/19 09:28:24;;;;;;;;;12.25;12.00;;;;;;;;5161267;27;11407;-72
2022/03/19 09:30:50;;;;;;;;;15.00;13.50;;;;;;;;5161362;27;11836;-74
2022/03/19 09:33:15;;;;;;;;;14.50;12.50;;;;;;;;5161395;27;11881;-77
2022/03/19 09:35:40;;;;;;;;;18.00;14.00;;;;;;;;5142595;27;10893;-76
2022/03/19 09:38:06;;;;;;;;;15.75;12.50;;;;;;;;5161469;27;11366;-76
2022/03/19 09:40:31;;;;;;;;;2.00;0.00;;;;;;;;5161198;27;12292;-76
2022/03/19 09:42:59;;;;;;;;;14.50;13.25;;;;;;;;5160248;27;22312;-75
2022/03/19 09:45:26;;;;;;;;;14.00;14.00;;;;;;;;5160805;27;23561;-78
2022/03/19 09:47:52;;;;;;;;;15.00;14.00;;;;;;;;5160593;27;11017;-77
2022/03/19 09:50:18;;;;;;;;;15.75;13.25;;;;;;;;5162393;27;11022;-76
2022/03/19 09:52:43;;;;;;;;;17.25;13.25;;;;;;;;5172142;27;10319;-76
2022/03/19 09:55:16;;;;;;;;;14.25;11.75;;;;;;;;5171440;27;9460;-74
2022/03/19 09:57:41;;;;;;;;;11.00;10.25;;;;;;;;5170021;27;10412;-76
2022/03/19 10:00:07;;;;;;;;;12.00;12.00;;;;;;;;5152871;27;10864;-82
2022/03/19 10:02:32;;;;;;;;;17.25;13.00;;;;;;;;5168777;27;11801;-77
2022/03/19 10:08:35;;;;;;;;;14.50;14.25;;;;;;;;5174732;27;10335;-77
2022/03/19 10:10:31;;;;;;;;;9.25;6.75;;;;;;;;5169347;27;10357;-74
2022/03/19 10:12:56;;;;;;;;;13.00;11.75;;;;;;;;5170998;27;22426;-76
2022/03/19 10:15:22;;;;;;;;;10.25;10.00;;;;;;;;5177183;27;22165;-77
2022/03/19 10:17:47;;;;;;;;;12.25;12.25;;;;;;;;5170191;27;11379;-76
2022/03/19 10:20:13;;;;;;;;;12.50;12.50;;;;;;;;5154256;27;14377;-77
2022/03/19 10:22:39;;;;;;;;;13.00;11.00;;;;;;;;5172176;27;8835;-76
2022/03/19 10:25:07;;;;;;;;;11.25;10.25;;;;;;;;5170273;27;11500;-77
2022/03/19 10:27:37;;;;;;;;;10.25;10.25;;;;;;;;5170647;27;12841;-75
2022/03/19 10:30:04;;;;;;;;;13.25;12.25;;;;;;;;5171477;27;9547;-76
2022/03/19 10:32:29;;;;;;;;;12.75;12.75;;;;;;;;5176073;27;9425;-77
2022/03/19 10:34:54;;;;;;;;;10.33;10.33;;;;;;;;5151792;27;10545;-76
2022/03/19 10:37:39;;;;;;;;;13.00;12.00;;;;;;;;5172089;27;10513;-76
2022/03/19 10:40:06;;;;;;;;;12.00;12.00;;;;;;;;5169399;27;12016;-76
2022/03/19 10:42:36;;;;;;;;;13.33;11.00;;;;;;;;5151802;27;9732;-77
2022/03/19 10:45:01;;;;;;;;;13.00;11.00;;;;;;;;5152470;27;12868;-76
2022/03/19 10:47:26;;;;;;;;;13.00;13.00;;;;;;;;5169466;27;9219;-77
2022/03/19 10:49:58;;;;;;;;;11.25;10.75;;;;;;;;5171884;27;8836;-76
2022/03/19 10:52:25;;;;;;;;;11.00;10.50;;;;;;;;5174021;27;11545;-77
2022/03/19 10:54:51;;;;;;;;;12.25;11.25;;;;;;;;5152219;27;11403;-77
2022/03/19 10:57:16;;;;;;;;;12.25;11.00;;;;;;;;5170058;27;11680;-76
2022/03/19 10:59:41;;;;;;;;;13.50;12.00;;;;;;;;5171250;27;9571;-77
2022/03/19 11:02:07;;;;;;;;;12.25;11.50;;;;;;;;5169493;27;10340;-77
2022/03/19 11:04:33;;;;;;;;;9.50;8.00;;;;;;;;5172050;27;11488;-77
2022/03/19 11:07:00;;;;;;;;;13.50;11.00;;;;;;;;5171009;27;23452;-77
2022/03/19 11:09:26;;;;;;;;;14.00;11.00;;;;;;;;5168931;27;22434;-75
2022/03/19 11:11:57;;;;;;;;;9.25;9.00;;;;;;;;5168825;27;11111;-77
2022/03/19 11:14:24;;;;;;;;;13.00;11.50;;;;;;;;5179730;27;23361;-82
2022/03/19 11:17:23;;;;;;;;;13.75;11.25;;;;;;;;5179375;27;23469;-77
2022/03/19 11:19:40;;;;;;;;;12.50;10.75;;;;;;;;5168854;27;11388;-75
2022/03/19 11:22:06;;;;;;;;;15.25;10.00;;;;;;;;5146856;27;13279;-72
2022/03/19 11:24:32;;;;;;;;;11.00;10.00;;;;;;;;5168941;27;11417;-72
2022/03/19 11:26:58;;;;;;;;;13.25;13.00;;;;;;;;5169465;27;9070;-72
2022/03/19 11:29:24;;;;;;;;;15.00;12.50;;;;;;;;5169540;27;11478;-72
2022/03/19 11:31:57;;;;;;;;;16.50;11.75;;;;;;;;5171171;27;11746;-74
2022/03/19 11:34:23;;;;;;;;;11.00;11.00;;;;;;;;5170829;27;11622;-73
2022/03/19 11:36:58;;;;;;;;;13.00;10.25;;;;;;;;5172035;27;11468;-74
2022/03/19 11:39:24;;;;;;;;;11.00;11.00;;;;;;;;5170479;27;11461;-73
2022/03/19 11:41:50;;;;;;;;;12.00;9.75;;;;;;;;5175529;27;12207;-73
2022/03/19 11:44:18;;;;;;;;;10.00;10.00;;;;;;;;5169883;27;21560;-73
2022/03/19 11:47:02;;;;;;;;;13.00;10.00;;;;;;;;5169251;27;21431;-74
2022/03/19 11:49:46;;;;;;;;;16.00;13.00;;;;;;;;5170468;27;11415;-74
2022/03/19 11:52:15;;;;;;;;;14.00;12.50;;;;;;;;5168769;27;11550;-74
2022/03/19 11:54:59;;;;;;;;;15.00;12.00;;;;;;;;5172045;27;12252;-73
2022/03/19 11:57:24;;;;;;;;;13.25;13.25;;;;;;;;5176997;27;11474;-73
2022/03/19 11:59:50;;;;;;;;;12.75;12.00;;;;;;;;5183437;27;11597;-72
2022/03/19 12:02:15;;;;;;;;;14.50;12.00;;;;;;;;5183213;27;11421;-71
2022/03/19 12:04:40;;;;;;;;;14.50;12.25;;;;;;;;5183531;27;9512;-71
2022/03/19 12:07:06;;;;;;;;;19.00;16.00;;;;;;;;5183724;27;8782;-72
2022/03/19 12:09:32;;;;;;;;;15.75;13.50;;;;;;;;5182635;27;11615;-73
2022/03/19 12:12:13;;;;;;;;;15.25;15.25;;;;;;;;5163405;27;14123;-72
2022/03/19 12:14:40;;;;;;;;;14.75;14.00;;;;;;;;5164025;27;13001;-72
2022/03/19 12:17:21;;;;;;;;;16.50;15.50;;;;;;;;5179258;27;11960;-71
2022/03/19 12:19:53;;;;;;;;;17.50;14.50;;;;;;;;5162515;27;11478;-72
2022/03/19 12:22:25;;;;;;;;;13.00;12.25;;;;;;;;5161368;27;11550;-70
2022/03/19 12:24:53;;;;;;;;;16.75;14.75;;;;;;;;5161634;27;12003;-70
2022/03/19 12:27:18;;;;;;;;;13.25;13.25;;;;;;;;5162292;27;11426;-71
2022/03/19 12:29:44;;;;;;;;;17.25;14.00;;;;;;;;5161864;27;11544;-70
2022/03/19 12:32:09;;;;;;;;;14.50;13.00;;;;;;;;5161827;27;11557;-71
2022/03/19 12:34:37;;;;;;;;;15.00;14.00;;;;;;;;5161423;27;10896;-70
2022/03/19 12:37:04;;;;;;;;;18.00;15.25;;;;;;;;5161949;27;11119;-70
2022/03/19 12:39:29;;;;;;;;;14.00;12.75;;;;;;;;5159669;27;13083;-70
2022/03/19 12:41:54;;;;;;;;;14.25;11.50;;;;;;;;5161171;27;11449;-71
2022/03/19 12:44:20;;;;;;;;;19.00;14.00;;;;;;;;5161673;27;10383;-70
2022/03/19 12:46:47;;;;;;;;;15.00;15.00;;;;;;;;5162041;27;11556;-70
2022/03/19 12:49:17;;;;;;;;;14.75;13.75;;;;;;;;5162221;27;9709;-72
2022/03/19 12:51:46;;;;;;;;;17.50;13.00;;;;;;;;5161449;27;11458;-71
2022/03/19 12:54:18;;;;;;;;;15.25;13.00;;;;;;;;5161668;27;11917;-70
2022/03/19 12:56:44;;;;;;;;;14.50;12.50;;;;;;;;5161362;27;11978;-70
2022/03/19 12:59:15;;;;;;;;;13.75;11.00;;;;;;;;5160931;27;11478;-70
2022/03/19 13:01:41;;;;;;;;;19.25;15.50;;;;;;;;5161874;27;11493;-71
2022/03/19 13:04:06;;;;;;;;;16.50;16.25;;;;;;;;5161748;27;11546;-71
2022/03/19 13:06:41;;;;;;;;;14.50;14.50;;;;;;;;5161857;27;11363;-70
2022/03/19 13:09:08;;;;;;;;;15.25;15.25;;;;;;;;5162135;27;12901;-70
2022/03/19 13:11:49;;;;;;;;;16.25;15.50;;;;;;;;5160855;27;11882;-71
2022/03/19 13:14:15;;;;;;;;;19.50;15.00;;;;;;;;5159402;27;11868;-70
2022/03/19 13:16:45;;;;;;;;;14.75;14.50;;;;;;;;5160022;27;11860;-70
2022/03/19 13:19:12;;;;;;;;;17.25;15.00;;;;;;;;5161664;27;11657;-70
2022/03/19 13:21:45;;;;;;;;;20.00;18.25;;;;;;;;5160719;27;11481;-70
2022/03/19 13:24:11;;;;;;;;;13.25;11.25;;;;;;;;5161689;27;13324;-70
2022/03/19 13:26:37;;;;;;;;;17.00;12.75;;;;;;;;5161483;27;12421;-70
2022/03/19 13:29:02;;;;;;;;;20.50;19.00;;;;;;;;5161216;27;11426;-70
2022/03/19 13:31:27;;;;;;;;;15.50;15.00;;;;;;;;5161593;27;13399;-70
2022/03/19 13:33:58;;;;;;;;;14.75;14.75;;;;;;;;5142123;27;10847;-70
2022/03/19 13:36:25;;;;;;;;;16.25;15.00;;;;;;;;5160667;27;11523;-70
2022/03/19 13:38:54;;;;;;;;;18.00;16.75;;;;;;;;5161468;27;12949;-70
2022/03/19 13:41:19;;;;;;;;;16.75;16.50;;;;;;;;5160299;27;11458;-71
2022/03/19 13:43:45;;;;;;;;;16.50;14.00;;;;;;;;5160663;27;11833;-70
2022/03/19 13:46:22;;;;;;;;;17.75;16.25;;;;;;;;5161556;27;10551;-70
2022/03/19 13:48:49;;;;;;;;;18.25;16.25;;;;;;;;5160737;27;11860;-70
2022/03/19 13:51:16;;;;;;;;;19.25;17.25;;;;;;;;5160463;27;11489;-70
2022/03/19 13:53:45;;;;;;;;;19.50;16.00;;;;;;;;5161152;27;11513;-70
2022/03/19 13:56:10;;;;;;;;;15.00;14.50;;;;;;;;5161070;27;11434;-70
2022/03/19 13:58:36;;;;;;;;;12.25;12.25;;;;;;;;5161150;27;11453;-69
2022/03/19 14:01:12;;;;;;;;;15.00;13.25;;;;;;;;5160744;27;11398;-70
2022/03/19 14:03:40;;;;;;;;;30.75;30.50;;;;;;;;5160589;27;10805;-71
2022/03/19 14:06:06;;;;;;;;;18.50;18.50;;;;;;;;5160663;27;13484;-69
2022/03/19 14:08:31;;;;;;;;;18.00;17.25;;;;;;;;5160388;27;13382;-70
2022/03/19 14:10:57;;;;;;;;;19.75;19.25;;;;;;;;5160817;27;11557;-70
2022/03/19 14:13:34;;;;;;;;;19.75;17.00;;;;;;;;5160785;27;10832;-70
2022/03/19 14:16:05;;;;;;;;;13.25;12.75;;;;;;;;5141459;27;11226;-70
2022/03/19 14:18:31;;;;;;;;;16.75;16.00;;;;;;;;5160649;27;11497;-70
2022/03/19 14:20:59;;;;;;;;;18.25;16.75;;;;;;;;5159742;27;11561;-70
2022/03/19 14:23:25;;;;;;;;;17.50;16.00;;;;;;;;5160938;27;11658;-71
2022/03/19 14:25:50;;;;;;;;;16.00;16.00;;;;;;;;5160730;27;12591;-73
2022/03/19 14:28:17;;;;;;;;;13.50;13.50;;;;;;;;5160977;27;8850;-70
2022/03/19 14:30:42;;;;;;;;;20.50;15.75;;;;;;;;5160332;27;11754;-70